createdAt,value
2023-01-04T00:01:02.501Z,97627.22
2023-01-04T00:03:32.040Z,97628.59
2023-01-04T00:06:03.647Z,97622.16
2023-01-04T00:08:32.450Z,97625.09
2023-01-04T00:11:02.805Z,97618.38
2023-01-04T00:13:31.347Z,97617.00
2023-01-04T00:16:07.130Z,97613.94
2023-01-04T00:18:36.605Z,97618.59
2023-01-04T00:21:11.156Z,97618.97
2023-01-04T00:23:40.032Z,97611.38
2023-01-04T00:26:09.812Z,97612.38
2023-01-04T00:28:38.432Z,97602.13
2023-01-04T00:31:07.818Z,97608.56
2023-01-04T00:33:36.169Z,97600.44
2023-01-04T00:36:06.386Z,97613.63
2023-01-04T00:38:36.633Z,97597.34
2023-01-04T00:41:05.816Z,97597.16
2023-01-04T00:43:34.223Z,97595.47
2023-01-04T00:46:03.026Z,97596.59
2023-01-04T00:48:31.713Z,97601.00
2023-01-04T00:51:00.248Z,97594.25
2023-01-04T00:53:28.581Z,97598.84
2023-01-04T00:56:01.966Z,97590.13
2023-01-04T00:58:30.245Z,97588.47
2023-01-04T01:00:58.548Z,97579.09
2023-01-04T01:03:26.972Z,97572.19
2023-01-04T01:05:55.291Z,97571.13
2023-01-04T01:08:26.503Z,97571.78
2023-01-04T01:10:55.418Z,97584.59
2023-01-04T01:13:25.264Z,97585.72
2023-01-04T01:15:53.528Z,97583.09
2023-01-04T01:18:21.785Z,97578.53
2023-01-04T01:20:50.054Z,97579.84
2023-01-04T01:23:18.328Z,97576.75
2023-01-04T01:25:46.609Z,97593.94
2023-01-04T01:28:14.833Z,97589.34
2023-01-04T01:30:44.943Z,97589.31
2023-01-04T01:33:13.266Z,97590.19
2023-01-04T01:35:41.508Z,97602.75
2023-01-04T01:38:09.703Z,97596.38
2023-01-04T01:40:42.530Z,97602.28
2023-01-04T01:43:17.942Z,97597.25
2023-01-04T01:45:48.914Z,97606.59
2023-01-04T01:48:19.666Z,97603.91
2023-01-04T01:50:50.943Z,97611.22
2023-01-04T01:53:19.377Z,97604.00
2023-01-04T01:55:50.507Z,97609.31
2023-01-04T01:58:23.309Z,97615.53
2023-01-04T02:00:52.956Z,97609.16
2023-01-04T02:03:23.565Z,97604.00
2023-01-04T02:05:54.714Z,97614.53
2023-01-04T02:08:24.884Z,97611.72
2023-01-04T02:10:58.265Z,97610.31
2023-01-04T02:13:49.515Z,97601.47
2023-01-04T02:16:25.413Z,97610.00
2023-01-04T02:18:57.607Z,97608.59
2023-01-04T02:21:36.175Z,97607.78
2023-01-04T02:24:27.537Z,97596.03
2023-01-04T02:27:24.126Z,97590.31
2023-01-04T02:30:35.919Z,97586.28
2023-01-04T02:33:15.137Z,97590.13
2023-01-04T02:35:48.246Z,97579.47
2023-01-04T02:38:23.233Z,97577.66
2023-01-04T02:40:58.155Z,97579.09
2023-01-04T02:43:47.672Z,97577.59
2023-01-04T02:46:19.248Z,97573.72
2023-01-04T02:49:06.388Z,97571.22
2023-01-04T02:51:36.483Z,97571.66
2023-01-04T02:54:07.765Z,97568.06
2023-01-04T02:56:50.202Z,97559.31
2023-01-04T02:59:39.701Z,97557.16
2023-01-04T03:02:35.896Z,97552.09
2023-01-04T03:05:31.673Z,97539.22
2023-01-04T03:08:06.884Z,97531.16
2023-01-04T03:10:38.563Z,97536.34
2023-01-04T03:13:10.203Z,97540.75
2023-01-04T03:15:41.189Z,97533.25
2023-01-04T03:18:15.001Z,97541.34
2023-01-04T03:20:45.969Z,97540.06
2023-01-04T03:23:34.561Z,97538.88
2023-01-04T03:26:24.084Z,97544.13
2023-01-04T03:29:10.509Z,97546.72
2023-01-04T03:31:59.451Z,97551.34
2023-01-04T03:34:45.436Z,97542.84
2023-01-04T03:37:18.340Z,97533.28
2023-01-04T03:40:17.422Z,97529.44
2023-01-04T03:43:09.710Z,97519.00
2023-01-04T03:45:59.275Z,97516.63
2023-01-04T03:48:31.838Z,97506.56
2023-01-04T03:51:06.902Z,97499.41
2023-01-04T03:53:39.241Z,97502.34
2023-01-04T03:56:09.403Z,97502.06
2023-01-04T03:58:38.052Z,97494.09
2023-01-04T04:01:07.458Z,97491.13
2023-01-04T04:03:53.533Z,97491.94
2023-01-04T04:06:39.495Z,97483.38
2023-01-04T04:09:09.103Z,97478.63
2023-01-04T04:11:37.330Z,97478.66
2023-01-04T04:14:05.669Z,97485.78
2023-01-04T04:16:33.956Z,97487.94
2023-01-04T04:19:08.244Z,97479.66
2023-01-04T04:21:37.317Z,97481.41
2023-01-04T04:24:06.368Z,97481.97
2023-01-04T04:26:35.962Z,97481.88
2023-01-04T04:29:04.190Z,97478.22
2023-01-04T04:31:32.556Z,97472.72
2023-01-04T04:34:00.997Z,97474.81
2023-01-04T04:36:29.578Z,97474.31
2023-01-04T04:38:57.863Z,97470.09
2023-01-04T04:41:41.444Z,97463.63
2023-01-04T04:44:13.300Z,97463.28
2023-01-04T04:46:42.007Z,97466.66
2023-01-04T04:49:10.933Z,97469.00
2023-01-04T04:51:39.436Z,97454.03
2023-01-04T04:54:08.123Z,97458.25
2023-01-04T04:56:37.922Z,97450.78
2023-01-04T04:59:06.797Z,97448.44
2023-01-04T05:01:36.609Z,97445.44
2023-01-04T05:04:05.373Z,97443.22
2023-01-04T05:06:33.824Z,97447.16
2023-01-04T05:09:02.238Z,97448.00
2023-01-04T05:11:47.927Z,97452.34
2023-01-04T05:14:16.204Z,97457.03
2023-01-04T05:16:46.220Z,97461.34
2023-01-04T05:19:14.540Z,97458.34
2023-01-04T05:21:42.773Z,97446.66
2023-01-04T05:24:12.715Z,97454.84
2023-01-04T05:26:41.479Z,97454.97
2023-01-04T05:29:30.310Z,97460.59
2023-01-04T05:31:58.994Z,97458.13
2023-01-04T05:34:27.318Z,97469.25
2023-01-04T05:36:55.550Z,97463.50
2023-01-04T05:39:23.795Z,97476.03
2023-01-04T05:42:09.843Z,97472.88
2023-01-04T05:44:38.087Z,97480.84
2023-01-04T05:47:14.500Z,97481.56
2023-01-04T05:49:43.260Z,97484.84
2023-01-04T05:52:11.687Z,97489.41
2023-01-04T05:54:39.952Z,97483.75
2023-01-04T05:57:08.464Z,97477.31
2023-01-04T05:59:41.565Z,97481.78
2023-01-04T06:02:17.618Z,97472.78
2023-01-04T06:04:46.029Z,97475.84
2023-01-04T06:07:14.474Z,97470.41
2023-01-04T06:09:43.334Z,97472.78
2023-01-04T06:12:11.790Z,97470.50
2023-01-04T06:14:40.926Z,97479.16
2023-01-04T06:17:09.350Z,97473.84
2023-01-04T06:19:39.022Z,97485.00
2023-01-04T06:22:09.075Z,97476.47
2023-01-04T06:24:37.352Z,97471.34
2023-01-04T06:27:05.658Z,97479.94
2023-01-04T06:29:34.009Z,97484.09
2023-01-04T06:32:02.468Z,97488.66
2023-01-04T06:34:31.629Z,97479.84
2023-01-04T06:37:01.426Z,97483.88
2023-01-04T06:39:29.699Z,97477.94
2023-01-04T06:42:05.785Z,97472.03
2023-01-04T06:44:34.289Z,97463.66
2023-01-04T06:47:02.577Z,97454.09
2023-01-04T06:49:30.844Z,97450.72
2023-01-04T06:51:59.263Z,97457.28
2023-01-04T06:54:29.839Z,97457.06
2023-01-04T06:56:57.966Z,97446.91
2023-01-04T06:59:26.161Z,97446.06
2023-01-04T07:01:54.889Z,97443.66
2023-01-04T07:04:23.635Z,97442.63
2023-01-04T07:06:51.939Z,97434.16
2023-01-04T07:09:20.292Z,97439.09
2023-01-04T07:11:49.962Z,97437.88
2023-01-04T07:14:18.413Z,97441.13
2023-01-04T07:16:46.927Z,97440.91
2023-01-04T07:19:15.317Z,97432.50
2023-01-04T07:21:43.708Z,97427.25
2023-01-04T07:24:12.429Z,97422.13
2023-01-04T07:26:40.702Z,97427.41
2023-01-04T07:29:17.109Z,97426.56
2023-01-04T07:31:47.353Z,97435.72
2023-01-04T07:34:16.161Z,97434.69
2023-01-04T07:36:44.518Z,97436.06
2023-01-04T07:39:13.079Z,97435.53
2023-01-04T07:41:41.912Z,97429.63
2023-01-04T07:44:12.400Z,97435.84
2023-01-04T07:46:40.834Z,97431.75
2023-01-04T07:49:17.069Z,97419.75
2023-01-04T07:51:46.741Z,97414.50
2023-01-04T07:54:15.320Z,97408.41
2023-01-04T07:56:43.832Z,97394.19
2023-01-04T07:59:14.697Z,97394.69
2023-01-04T08:01:43.208Z,97398.13
2023-01-04T08:04:13.669Z,97395.56
2023-01-04T08:06:43.060Z,97398.53
2023-01-04T08:09:12.402Z,97392.03
2023-01-04T08:11:41.178Z,97395.50
2023-01-04T08:14:09.532Z,97393.41
2023-01-04T08:16:40.190Z,97386.78
2023-01-04T08:19:08.917Z,97385.41
2023-01-04T08:21:37.530Z,97387.28
2023-01-04T08:24:06.594Z,97391.44
2023-01-04T08:26:35.239Z,97384.81
2023-01-04T08:29:03.473Z,97385.47
2023-01-04T08:31:33.557Z,97388.13
2023-01-04T08:34:05.657Z,97382.34
2023-01-04T08:36:35.076Z,97379.06
2023-01-04T08:39:05.855Z,97380.84
2023-01-04T08:42:02.201Z,97387.72
2023-01-04T08:44:36.150Z,97387.88
2023-01-04T08:47:04.509Z,97388.69
2023-01-04T08:49:34.342Z,97382.97
2023-01-04T08:52:02.604Z,97382.47
2023-01-04T08:54:30.838Z,97373.47
2023-01-04T08:56:59.154Z,97372.59
2023-01-04T08:59:27.480Z,97367.97
2023-01-04T09:02:01.062Z,97364.44
2023-01-04T09:04:34.464Z,97364.59
2023-01-04T09:07:02.829Z,97359.88
2023-01-04T09:09:31.437Z,97367.47
2023-01-04T09:12:00.757Z,97362.91
2023-01-04T09:14:29.013Z,97346.69
2023-01-04T09:16:57.430Z,97346.53
2023-01-04T09:19:25.705Z,97346.84
2023-01-04T09:21:55.444Z,97343.91
2023-01-04T09:24:23.928Z,97342.59
2023-01-04T09:26:52.207Z,97347.19
2023-01-04T09:29:20.672Z,97353.03
2023-01-04T09:31:49.440Z,97346.25
2023-01-04T09:34:18.204Z,97340.84
2023-01-04T09:36:47.286Z,97335.94
2023-01-04T09:39:23.221Z,97334.16
2023-01-04T09:41:57.284Z,97328.91
2023-01-04T09:45:12.222Z,97339.28
2023-01-04T09:47:29.733Z,97340.28
2023-01-04T09:50:01.164Z,97335.97
2023-01-04T09:52:40.137Z,97336.97
2023-01-04T09:55:37.742Z,97335.75
2023-01-04T09:58:09.415Z,97323.94
2023-01-04T10:00:43.985Z,97333.38
2023-01-04T10:03:15.485Z,97330.91
2023-01-04T10:05:44.375Z,97318.78
2023-01-04T10:08:16.445Z,97326.00
2023-01-04T10:10:50.913Z,97319.75
2023-01-04T10:13:35.071Z,97309.81
2023-01-04T10:16:11.725Z,97307.72
2023-01-04T10:21:40.076Z,97296.97
2023-01-04T10:24:20.111Z,97284.09
2023-01-04T10:26:51.389Z,97280.09
2023-01-04T10:29:39.287Z,97273.84
2023-01-04T10:32:16.662Z,97278.66
2023-01-04T10:34:46.252Z,97267.38
2023-01-04T10:37:17.066Z,97258.06
2023-01-04T10:39:46.790Z,97250.53
2023-01-04T10:42:20.798Z,97251.94
2023-01-04T10:45:01.927Z,97240.31
2023-01-04T10:47:37.304Z,97230.22
2023-01-04T10:50:10.616Z,97237.53
2023-01-04T10:52:42.262Z,97240.63
2023-01-04T10:55:16.193Z,97227.38
2023-01-04T10:57:49.653Z,97223.63
2023-01-04T11:00:21.975Z,97209.63
2023-01-04T11:02:54.973Z,97208.94
2023-01-04T11:05:25.978Z,97211.69
2023-01-04T11:07:57.212Z,97195.97
2023-01-04T11:10:29.597Z,97193.13
2023-01-04T11:12:59.381Z,97195.91
2023-01-04T11:15:27.862Z,97202.22
2023-01-04T11:17:56.300Z,97192.47
2023-01-04T11:20:27.011Z,97200.56
2023-01-04T11:23:00.311Z,97199.59
2023-01-04T11:25:37.456Z,97196.66
2023-01-04T11:28:13.955Z,97200.88
2023-01-04T11:30:51.601Z,97209.66
2023-01-04T11:33:21.841Z,97195.28
2023-01-04T11:35:51.885Z,97198.16
2023-01-04T11:38:21.974Z,97193.81
2023-01-04T11:41:09.426Z,97190.94
2023-01-04T11:43:40.663Z,97197.03
2023-01-04T11:46:24.299Z,97189.19
2023-01-04T11:48:53.828Z,97192.03
2023-01-04T11:51:36.730Z,97176.13
2023-01-04T11:54:06.296Z,97159.25
2023-01-04T11:56:35.604Z,97161.63
2023-01-04T11:59:20.652Z,97165.81
2023-01-04T12:01:54.097Z,97154.72
2023-01-04T12:04:24.093Z,97154.91
2023-01-04T12:06:54.688Z,97147.44
2023-01-04T12:09:22.782Z,97138.50
2023-01-04T12:11:52.785Z,97125.72
2023-01-04T12:14:24.957Z,97133.91
2023-01-04T12:16:58.990Z,97145.91
2023-01-04T12:19:28.138Z,97144.44
2023-01-04T12:21:58.631Z,97137.59
2023-01-04T12:24:29.894Z,97134.50
2023-01-04T12:26:58.552Z,97136.13
2023-01-04T12:30:01.814Z,97127.16
2023-01-04T12:32:46.971Z,97126.72
2023-01-04T12:36:01.051Z,97126.72
2023-01-04T12:39:07.886Z,97115.38
2023-01-04T12:42:17.849Z,97111.00
2023-01-04T12:45:21.406Z,97100.13
2023-01-04T12:48:11.917Z,97091.31
2023-01-04T12:51:34.618Z,97082.84
2023-01-04T12:54:04.259Z,97083.94
2023-01-04T12:57:09.619Z,97085.03
2023-01-04T12:59:39.926Z,97096.00
2023-01-04T13:02:19.955Z,97102.72
2023-01-04T13:04:48.767Z,97092.31
2023-01-04T13:07:22.673Z,97091.72
2023-01-04T13:09:56.040Z,97092.41
2023-01-04T13:12:56.880Z,97086.84
2023-01-04T13:15:25.818Z,97080.63
2023-01-04T13:17:55.619Z,97073.69
2023-01-04T13:20:25.758Z,97078.03
2023-01-04T13:22:56.012Z,97068.44
2023-01-04T13:25:25.520Z,97075.50
2023-01-04T13:28:01.559Z,97071.22
2023-01-04T13:30:32.171Z,97069.84
2023-01-04T13:33:30.138Z,97078.81
2023-01-04T13:36:01.829Z,97071.84
2023-01-04T13:38:31.820Z,97066.22
2023-01-04T13:41:00.213Z,97066.91
2023-01-04T13:43:54.342Z,97062.31
2023-01-04T13:46:24.091Z,97049.09
2023-01-04T13:48:55.697Z,97054.59
2023-01-04T13:51:32.085Z,97051.13
2023-01-04T13:54:05.792Z,97056.16
2023-01-04T13:56:35.661Z,97050.69
2023-01-04T13:59:04.131Z,97046.63
2023-01-04T14:01:33.983Z,97048.38
2023-01-04T14:04:05.576Z,97040.19
2023-01-04T14:06:35.732Z,97053.16
2023-01-04T14:09:06.749Z,97042.75
2023-01-04T14:12:06.781Z,97038.94
2023-01-04T14:14:37.051Z,97033.78
2023-01-04T14:17:17.718Z,97032.66
2023-01-04T14:19:48.616Z,97035.66
2023-01-04T14:22:37.227Z,97027.78
2023-01-04T14:25:55.956Z,97034.25
2023-01-04T14:28:44.891Z,97031.66
2023-01-04T14:31:28.492Z,97032.69
2023-01-04T14:33:57.255Z,97030.34
2023-01-04T14:36:29.169Z,97032.72
2023-01-04T14:39:01.135Z,97035.50
2023-01-04T14:41:33.420Z,97030.31
2023-01-04T14:44:11.045Z,97020.34
2023-01-04T14:46:39.775Z,97016.72
2023-01-04T14:49:08.590Z,97018.06
2023-01-04T14:51:41.830Z,97017.78
2023-01-04T14:54:12.549Z,97005.69
2023-01-04T14:56:41.813Z,97010.03
2023-01-04T14:59:10.664Z,97006.78
2023-01-04T15:01:39.642Z,97002.06
2023-01-04T15:04:08.340Z,96990.50
2023-01-04T15:06:38.073Z,96989.19
2023-01-04T15:09:06.501Z,96977.13
2023-01-04T15:11:34.905Z,96977.84
2023-01-04T15:14:03.195Z,96985.91
2023-01-04T15:16:31.534Z,96971.94
2023-01-04T15:19:00.136Z,96975.50
2023-01-04T15:21:28.715Z,96982.16
2023-01-04T15:23:58.660Z,96981.13
2023-01-04T15:26:27.050Z,96974.53
2023-01-04T15:28:55.435Z,96977.47
2023-01-04T15:31:30.064Z,96979.13
2023-01-04T15:34:01.069Z,96977.13
2023-01-04T15:36:29.379Z,96977.47
2023-01-04T15:38:58.995Z,96982.34
2023-01-04T15:41:45.024Z,96988.28
2023-01-04T15:44:13.278Z,96975.13
2023-01-04T15:46:41.592Z,96978.53
2023-01-04T15:49:16.700Z,96967.13
2023-01-04T15:51:45.819Z,96963.69
2023-01-04T15:54:17.256Z,96975.03
2023-01-04T15:56:45.536Z,96984.47
2023-01-04T15:59:14.475Z,96978.28
2023-01-04T16:01:43.489Z,96969.84
2023-01-04T16:04:12.562Z,96980.09
2023-01-04T16:06:41.286Z,96981.09
2023-01-04T16:09:10.462Z,96982.47
2023-01-04T16:12:01.139Z,96993.25
2023-01-04T16:14:29.530Z,96977.63
2023-01-04T16:16:57.984Z,96988.00
2023-01-04T16:19:26.228Z,96985.06
2023-01-04T16:21:54.504Z,96978.75
2023-01-04T16:25:08.269Z,96971.50
2023-01-04T16:27:12.483Z,96970.69
2023-01-04T16:29:40.779Z,96971.66
2023-01-04T16:32:08.990Z,96965.22
2023-01-04T16:34:37.363Z,96986.50
2023-01-04T16:37:05.628Z,96982.56
2023-01-04T16:40:05.244Z,96992.88
2023-01-04T16:42:23.953Z,96987.25
2023-01-04T16:44:52.229Z,96983.78
2023-01-04T16:47:21.139Z,96985.97
2023-01-04T16:49:52.425Z,96998.09
2023-01-04T16:52:20.788Z,96985.75
2023-01-04T16:54:50.191Z,96984.16
2023-01-04T16:57:18.429Z,96990.34
2023-01-04T16:59:48.096Z,96980.00
2023-01-04T17:02:16.547Z,96996.47
2023-01-04T17:04:44.826Z,96992.97
2023-01-04T17:07:13.150Z,96991.72
2023-01-04T17:09:41.469Z,96997.75
2023-01-04T17:17:47.445Z,96976.50
2023-01-04T17:20:15.776Z,96985.00
2023-01-04T17:22:44.162Z,96960.84
2023-01-04T17:25:12.545Z,96984.25
2023-01-04T17:27:40.841Z,96980.34
2023-01-04T17:30:11.641Z,96967.81
2023-01-04T17:32:39.942Z,96955.75
2023-01-04T17:35:08.726Z,96960.97
2023-01-04T17:37:37.192Z,96951.19
2023-01-04T17:40:06.225Z,96939.31
2023-01-04T17:42:34.678Z,96955.97
2023-01-04T17:45:03.057Z,96933.47
2023-01-04T17:47:32.719Z,96923.63
2023-01-04T17:50:01.025Z,96931.03
2023-01-04T17:52:31.564Z,96943.59
2023-01-04T17:55:00.999Z,96943.34
2023-01-04T17:57:29.911Z,96949.53
2023-01-04T17:59:58.291Z,96941.75
2023-01-04T18:02:26.785Z,96934.94
2023-01-04T18:04:56.567Z,96933.13
2023-01-04T18:07:25.825Z,96934.41
2023-01-04T18:09:54.298Z,96921.59
2023-01-04T18:12:22.827Z,96927.81
2023-01-04T18:14:51.118Z,96932.94
2023-01-04T18:17:19.549Z,96916.59
2023-01-04T18:19:47.851Z,96920.00
2023-01-04T18:22:17.615Z,96919.97
2023-01-04T18:24:45.916Z,96914.31
2023-01-04T18:27:25.174Z,96905.91
2023-01-04T18:29:55.089Z,96915.00
2023-01-04T18:32:23.621Z,96911.53
2023-01-04T18:34:51.981Z,96907.19
2023-01-04T18:37:21.854Z,96901.31
2023-01-04T18:39:50.260Z,96899.97
2023-01-04T18:42:18.646Z,96888.75
2023-01-04T18:44:49.408Z,96885.41
2023-01-04T18:47:19.974Z,96856.19
2023-01-04T18:49:48.940Z,96866.59
2023-01-04T18:52:17.539Z,96843.03
2023-01-04T18:54:48.387Z,96853.03
2023-01-04T18:57:16.876Z,96856.94
2023-01-04T18:59:49.788Z,96862.84
2023-01-04T19:02:19.660Z,96863.13
2023-01-04T19:04:48.135Z,96847.03
2023-01-04T19:07:16.574Z,96836.81
2023-01-04T19:09:45.240Z,96837.31
2023-01-04T19:12:14.949Z,96848.06
2023-01-04T19:14:43.309Z,96845.81
2023-01-04T19:17:11.952Z,96822.88
2023-01-04T19:19:40.292Z,96822.56
2023-01-04T19:22:08.502Z,96830.94
2023-01-04T19:24:37.032Z,96833.38
2023-01-04T19:27:05.462Z,96810.50
2023-01-04T19:29:38.511Z,96833.72
2023-01-04T19:32:06.780Z,96825.94
2023-01-04T19:34:35.057Z,96840.47
2023-01-04T19:37:03.287Z,96824.41
2023-01-04T19:39:31.943Z,96825.03
2023-01-04T19:42:00.384Z,96834.31
2023-01-04T19:44:28.693Z,96828.81
2023-01-04T19:46:58.309Z,96823.97
2023-01-04T19:49:26.695Z,96826.50
2023-01-04T19:51:54.991Z,96815.03
2023-01-04T19:54:25.725Z,96821.81
2023-01-04T19:56:54.873Z,96827.22
2023-01-04T19:59:23.543Z,96818.25
2023-01-04T20:01:52.116Z,96820.34
2023-01-04T20:04:21.933Z,96819.72
2023-01-04T20:06:50.216Z,96811.06
2023-01-04T20:09:24.752Z,96826.69
2023-01-04T20:11:53.893Z,96815.59
2023-01-04T20:14:22.406Z,96817.22
2023-01-04T20:16:50.714Z,96809.88
2023-01-04T20:19:19.387Z,96821.31
2023-01-04T20:21:49.060Z,96828.16
2023-01-04T20:24:17.788Z,96822.53
2023-01-04T20:26:46.572Z,96813.91
2023-01-04T20:29:14.848Z,96805.41
2023-01-04T20:31:45.724Z,96819.84
2023-01-04T20:34:14.329Z,96810.75
2023-01-04T20:36:42.747Z,96812.91
2023-01-04T20:39:12.661Z,96813.81
2023-01-04T20:42:01.511Z,96793.66
2023-01-04T20:44:29.121Z,96797.47
2023-01-04T20:46:57.379Z,96807.63
2023-01-04T20:49:25.620Z,96817.47
2023-01-04T20:51:53.983Z,96826.56
2023-01-04T20:54:23.637Z,96823.84
2023-01-04T20:56:52.153Z,96826.44
2023-01-04T20:59:20.466Z,96821.25
2023-01-04T21:01:49.119Z,96820.50
2023-01-04T21:04:17.762Z,96815.00
2023-01-04T21:06:46.099Z,96825.53
2023-01-04T21:09:14.480Z,96828.31
2023-01-04T21:11:44.255Z,96808.06
2023-01-04T21:14:13.181Z,96815.13
2023-01-04T21:16:41.965Z,96823.47
2023-01-04T21:19:10.636Z,96813.19
2023-01-04T21:24:25.495Z,96820.91
2023-01-04T21:26:55.097Z,96795.38
2023-01-04T21:29:25.381Z,96819.09
2023-01-04T21:31:53.696Z,96809.19
2023-01-04T21:34:22.954Z,96809.50
2023-01-04T21:36:51.381Z,96807.81
2023-01-04T21:39:19.680Z,96812.13
2023-01-04T21:41:51.166Z,96813.06
2023-01-04T21:44:21.124Z,96776.34
2023-01-04T21:46:49.455Z,96791.63
2023-01-04T21:49:17.736Z,96813.16
2023-01-04T21:51:45.987Z,96786.22
2023-01-04T21:54:14.236Z,96826.75
2023-01-04T21:56:42.421Z,96806.53
2023-01-04T21:59:10.821Z,96807.94
2023-01-04T22:01:40.490Z,96821.31
2023-01-04T22:04:08.822Z,96822.16
2023-01-04T22:06:38.856Z,96830.63
2023-01-04T22:09:07.308Z,96816.97
2023-01-04T22:11:35.643Z,96824.44
2023-01-04T22:14:04.145Z,96828.91
2023-01-04T22:16:32.492Z,96822.44
2023-01-04T22:19:02.225Z,96828.25
2023-01-04T22:21:30.777Z,96832.44
2023-01-04T22:23:59.526Z,96834.81
2023-01-04T22:26:27.867Z,96825.69
2023-01-04T22:28:56.207Z,96822.88
2023-01-04T22:31:24.516Z,96830.63
2023-01-04T22:33:52.817Z,96823.72
2023-01-04T22:36:23.726Z,96816.66
2023-01-04T22:38:53.285Z,96823.56
2023-01-04T22:41:23.325Z,96818.25
2023-01-04T22:43:56.574Z,96828.56
2023-01-04T22:46:26.077Z,96827.69
2023-01-04T22:48:54.442Z,96830.53
2023-01-04T22:51:27.507Z,96842.28
2023-01-04T22:53:56.536Z,96830.75
2023-01-04T22:56:25.563Z,96790.13
2023-01-04T22:58:55.707Z,96825.94
2023-01-04T23:01:25.167Z,96825.41
2023-01-04T23:03:54.756Z,96834.84
2023-01-04T23:06:25.642Z,96829.22
2023-01-04T23:08:57.234Z,96830.03
2023-01-04T23:11:26.273Z,96831.97
2023-01-04T23:13:54.776Z,96831.44
2023-01-04T23:16:29.567Z,96813.69
2023-01-04T23:19:00.710Z,96818.16
2023-01-04T23:21:30.785Z,96810.88
2023-01-04T23:23:59.528Z,96800.91
2023-01-04T23:26:29.405Z,96793.13
2023-01-04T23:28:57.725Z,96759.28
2023-01-04T23:31:27.658Z,96774.34
2023-01-04T23:33:57.589Z,96770.41
2023-01-04T23:36:28.009Z,96775.72
2023-01-04T23:38:59.577Z,96750.13
2023-01-04T23:41:42.539Z,96768.66
2023-01-04T23:44:13.006Z,96762.94
2023-01-04T23:46:41.336Z,96765.38
2023-01-04T23:49:09.791Z,96766.84
2023-01-04T23:51:38.464Z,96757.44
2023-01-04T23:54:08.999Z,96760.59
2023-01-04T23:56:37.282Z,96758.25
2023-01-04T23:59:05.572Z,96753.31
